createdAt,value
2022-09-25T00:01:21.933Z,12.71
2022-09-25T00:03:48.308Z,12.24
2022-09-25T00:06:18.222Z,12.35
2022-09-25T00:08:45.077Z,12.38
2022-09-25T00:11:15.125Z,12.77
2022-09-25T00:13:42.926Z,12.75
2022-09-25T00:16:11.663Z,12.35
2022-09-25T00:18:56.332Z,12.74
2022-09-25T00:21:22.817Z,12.74
2022-09-25T00:23:49.198Z,12.46
2022-09-25T00:26:17.084Z,12.58
2022-09-25T00:28:43.640Z,12.29
2022-09-25T00:31:13.306Z,12.14
2022-09-25T00:33:39.782Z,12.67
2022-09-25T00:36:09.074Z,12.65
2022-09-25T00:38:36.858Z,12.36
2022-09-25T00:41:05.662Z,12.62
2022-09-25T00:43:41.196Z,12.58
2022-09-25T00:46:25.115Z,12.30
2022-09-25T00:49:04.858Z,11.54
2022-09-25T00:51:38.409Z,12.49
2022-09-25T00:54:07.068Z,11.97
2022-09-25T00:56:39.798Z,12.57
2022-09-25T00:59:09.377Z,12.56
2022-09-25T01:01:35.824Z,11.53
2022-09-25T01:04:02.399Z,12.21
2022-09-25T01:06:29.382Z,12.19
2022-09-25T01:08:57.061Z,12.02
2022-09-25T01:11:23.688Z,11.66
2022-09-25T01:13:54.206Z,12.21
2022-09-25T01:16:31.726Z,12.40
2022-09-25T01:19:06.337Z,12.49
2022-09-25T01:21:48.665Z,12.53
2022-09-25T01:24:42.694Z,12.52
2022-09-25T01:27:40.616Z,12.53
2022-09-25T01:30:08.527Z,12.53
2022-09-25T01:32:58.337Z,12.04
2022-09-25T01:35:39.980Z,12.54
2022-09-25T01:38:23.765Z,12.18
2022-09-25T01:41:04.921Z,12.55
2022-09-25T01:43:59.552Z,12.54
2022-09-25T01:46:34.928Z,12.53
2022-09-25T01:49:09.363Z,12.23
2022-09-25T01:51:43.715Z,12.21
2022-09-25T01:54:15.734Z,12.47
2022-09-25T01:56:54.272Z,12.45
2022-09-25T01:59:32.795Z,12.17
2022-09-25T02:02:03.504Z,12.29
2022-09-25T02:04:39.196Z,12.43
2022-09-25T02:07:09.994Z,12.35
2022-09-25T02:09:41.473Z,12.44
2022-09-25T02:12:36.959Z,12.25
2022-09-25T02:15:10.654Z,12.36
2022-09-25T02:18:18.744Z,12.41
2022-09-25T02:20:53.384Z,12.22
2022-09-25T02:23:27.838Z,12.00
2022-09-25T02:26:05.458Z,12.34
2022-09-25T02:28:32.522Z,12.25
2022-09-25T02:31:02.126Z,12.30
2022-09-25T02:33:29.582Z,12.22
2022-09-25T02:35:55.868Z,12.06
2022-09-25T02:38:22.306Z,11.64
2022-09-25T02:40:56.185Z,11.60
2022-09-25T02:43:35.339Z,11.33
2022-09-25T02:46:22.429Z,11.83
2022-09-25T02:48:58.085Z,11.91
2022-09-25T02:51:56.542Z,12.05
2022-09-25T02:54:31.489Z,12.02
2022-09-25T02:57:14.322Z,11.98
2022-09-25T02:59:51.414Z,11.53
2022-09-25T03:02:20.207Z,11.45
2022-09-25T03:04:49.186Z,11.90
2022-09-25T03:07:17.930Z,11.54
2022-09-25T03:09:47.417Z,11.81
2022-09-25T03:12:14.649Z,11.65
2022-09-25T03:14:41.243Z,11.79
2022-09-25T03:17:09.636Z,10.99
2022-09-25T03:19:36.248Z,11.81
2022-09-25T03:22:03.001Z,11.82
2022-09-25T03:24:29.384Z,11.83
2022-09-25T03:26:55.764Z,11.62
2022-09-25T03:29:22.476Z,11.74
2022-09-25T03:31:49.135Z,11.29
2022-09-25T03:34:18.844Z,11.88
2022-09-25T03:36:47.303Z,11.46
2022-09-25T03:39:15.246Z,11.94
2022-09-25T03:41:43.158Z,11.96
2022-09-25T03:44:09.649Z,11.38
2022-09-25T03:46:36.629Z,11.57
2022-09-25T03:49:03.706Z,11.67
2022-09-25T03:51:31.825Z,11.64
2022-09-25T03:53:58.435Z,11.92
2022-09-25T03:56:27.508Z,11.40
2022-09-25T03:58:54.543Z,11.91
2022-09-25T04:01:22.250Z,11.89
2022-09-25T04:03:50.395Z,11.23
2022-09-25T04:06:19.644Z,11.35
2022-09-25T04:08:47.653Z,11.87
2022-09-25T04:11:16.498Z,10.71
2022-09-25T04:13:44.653Z,11.88
2022-09-25T04:16:13.171Z,11.90
2022-09-25T04:18:41.720Z,11.74
2022-09-25T04:21:09.470Z,11.47
2022-09-25T04:23:37.128Z,11.82
2022-09-25T04:26:03.644Z,11.62
2022-09-25T04:28:32.125Z,11.76
2022-09-25T04:30:58.717Z,11.64
2022-09-25T04:33:43.746Z,11.64
2022-09-25T04:36:10.130Z,11.13
2022-09-25T04:38:36.451Z,10.76
2022-09-25T04:41:02.825Z,11.34
2022-09-25T04:43:30.658Z,11.26
2022-09-25T04:46:01.699Z,11.33
2022-09-25T04:48:28.583Z,11.51
2022-09-25T04:50:54.945Z,10.89
2022-09-25T04:53:21.608Z,10.28
2022-09-25T04:55:48.016Z,10.84
2022-09-25T04:58:14.423Z,11.20
2022-09-25T05:00:42.170Z,11.26
2022-09-25T05:03:08.563Z,10.62
2022-09-25T05:05:35.184Z,10.94
2022-09-25T05:08:02.313Z,11.03
2022-09-25T05:10:31.341Z,10.91
2022-09-25T05:13:02.658Z,10.30
2022-09-25T05:15:31.378Z,10.86
2022-09-25T05:18:05.853Z,10.84
2022-09-25T05:20:32.175Z,10.82
2022-09-25T05:22:59.204Z,10.80
2022-09-25T05:25:26.899Z,10.66
2022-09-25T05:27:55.766Z,10.74
2022-09-25T05:30:22.989Z,10.68
2022-09-25T05:32:50.508Z,10.27
2022-09-25T05:35:22.076Z,10.54
2022-09-25T05:37:48.370Z,10.04
2022-09-25T05:40:16.080Z,10.35
2022-09-25T05:42:45.961Z,10.14
2022-09-25T05:45:12.496Z,9.98
2022-09-25T05:47:39.881Z,10.35
2022-09-25T05:50:06.955Z,10.31
2022-09-25T05:52:33.364Z,10.27
2022-09-25T05:55:00.771Z,10.25
2022-09-25T05:57:27.801Z,10.12
2022-09-25T05:59:54.115Z,10.01
2022-09-25T06:02:20.734Z,10.12
2022-09-25T06:04:47.035Z,10.22
2022-09-25T06:07:13.409Z,10.17
2022-09-25T06:09:44.079Z,9.72
2022-09-25T06:12:10.586Z,10.21
2022-09-25T06:14:40.943Z,9.97
2022-09-25T06:17:08.130Z,9.41
2022-09-25T06:19:35.268Z,9.79
2022-09-25T06:22:01.706Z,10.29
2022-09-25T06:24:28.037Z,10.27
2022-09-25T06:26:54.380Z,10.38
2022-09-25T06:29:20.793Z,10.44
2022-09-25T06:31:47.216Z,10.34
2022-09-25T06:34:13.575Z,10.22
2022-09-25T06:36:40.058Z,10.71
2022-09-25T06:39:06.494Z,10.84
2022-09-25T06:41:32.900Z,10.98
2022-09-25T06:43:59.970Z,11.18
2022-09-25T06:46:26.325Z,11.37
2022-09-25T06:48:57.786Z,11.34
2022-09-25T06:51:25.497Z,11.72
2022-09-25T06:53:55.668Z,11.65
2022-09-25T06:56:22.365Z,11.67
2022-09-25T06:58:48.934Z,12.20
2022-09-25T07:01:17.783Z,12.27
2022-09-25T07:03:44.545Z,11.17
2022-09-25T07:06:22.128Z,12.52
2022-09-25T07:08:49.534Z,12.65
2022-09-25T07:11:21.461Z,12.54
2022-09-25T07:13:54.839Z,12.76
2022-09-25T07:16:24.295Z,12.95
2022-09-25T07:18:53.557Z,13.29
2022-09-25T07:21:22.718Z,13.44
2022-09-25T07:23:50.561Z,13.55
2022-09-25T07:26:23.062Z,13.32
2022-09-25T07:28:55.122Z,13.73
2022-09-25T07:31:27.792Z,13.71
2022-09-25T07:33:54.488Z,13.64
2022-09-25T07:36:21.885Z,13.41
2022-09-25T07:38:52.580Z,13.15
2022-09-25T07:41:19.978Z,13.29
2022-09-25T07:43:46.306Z,13.36
2022-09-25T07:46:12.783Z,13.22
2022-09-25T07:48:39.433Z,13.34
2022-09-25T07:51:08.880Z,13.16
2022-09-25T07:53:35.259Z,13.26
2022-09-25T07:56:06.481Z,13.27
2022-09-25T07:58:35.289Z,12.94
2022-09-25T08:01:04.280Z,13.24
2022-09-25T08:03:30.794Z,13.21
2022-09-25T08:05:59.097Z,13.18
2022-09-25T08:08:27.713Z,13.53
2022-09-25T08:10:59.809Z,13.64
2022-09-25T08:13:26.158Z,13.52
2022-09-25T08:15:52.601Z,13.86
2022-09-25T08:18:18.950Z,13.66
2022-09-25T08:20:45.456Z,13.44
2022-09-25T08:23:12.310Z,13.10
2022-09-25T08:25:38.654Z,12.88
2022-09-25T08:28:04.996Z,13.27
2022-09-25T08:30:31.494Z,13.51
2022-09-25T08:32:57.925Z,13.62
2022-09-25T08:35:24.334Z,13.74
2022-09-25T08:37:50.700Z,13.74
2022-09-25T08:40:26.752Z,13.62
2022-09-25T08:42:55.050Z,13.22
2022-09-25T08:45:52.325Z,13.18
2022-09-25T08:48:47.384Z,13.28
2022-09-25T08:51:14.092Z,12.75
2022-09-25T08:53:44.688Z,13.31
2022-09-25T08:56:17.585Z,13.37
2022-09-25T08:59:02.631Z,13.18
2022-09-25T09:01:42.111Z,12.97
2022-09-25T09:04:19.130Z,13.91
2022-09-25T09:06:53.193Z,13.62
2022-09-25T09:09:35.852Z,14.14
2022-09-25T09:12:12.166Z,14.32
2022-09-25T09:14:48.226Z,14.33
2022-09-25T09:17:18.096Z,14.49
2022-09-25T09:19:47.833Z,14.52
2022-09-25T09:22:18.182Z,14.39
2022-09-25T09:25:00.716Z,14.87
2022-09-25T09:27:45.889Z,15.02
2022-09-25T09:30:18.487Z,15.14
2022-09-25T09:33:14.538Z,15.41
2022-09-25T09:35:46.920Z,15.47
2022-09-25T09:38:24.653Z,14.81
2022-09-25T09:41:12.926Z,15.06
2022-09-25T09:43:57.558Z,15.02
2022-09-25T09:47:11.907Z,15.52
2022-09-25T09:49:51.016Z,15.23
2022-09-25T09:52:21.768Z,15.91
2022-09-25T09:54:53.397Z,15.63
2022-09-25T09:57:24.913Z,15.21
2022-09-25T10:00:06.027Z,15.15
2022-09-25T10:02:50.448Z,15.38
2022-09-25T10:05:31.078Z,15.34
2022-09-25T10:07:57.594Z,14.76
2022-09-25T10:10:34.240Z,14.56
2022-09-25T10:13:06.597Z,15.82
2022-09-25T10:15:39.209Z,16.03
2022-09-25T10:18:07.559Z,16.00
2022-09-25T10:20:41.882Z,15.61
2022-09-25T10:23:26.248Z,15.49
2022-09-25T10:25:56.104Z,16.18
2022-09-25T10:28:26.907Z,16.07
2022-09-25T10:30:54.398Z,16.29
2022-09-25T10:33:27.147Z,16.06
2022-09-25T10:35:54.920Z,15.64
2022-09-25T10:38:43.831Z,16.17
2022-09-25T10:41:14.249Z,15.50
2022-09-25T10:44:00.951Z,16.88
2022-09-25T10:46:53.867Z,17.26
2022-09-25T10:49:44.418Z,17.22
2022-09-25T10:52:13.851Z,16.93
2022-09-25T10:54:45.290Z,15.79
2022-09-25T10:57:34.266Z,16.64
2022-09-25T11:00:20.758Z,16.97
2022-09-25T11:02:50.022Z,16.67
2022-09-25T11:05:22.087Z,17.25
2022-09-25T11:07:54.949Z,16.73
2022-09-25T11:10:24.187Z,16.24
2022-09-25T11:12:52.066Z,16.08
2022-09-25T11:15:23.137Z,16.17
2022-09-25T11:17:52.707Z,16.68
2022-09-25T11:20:19.159Z,16.70
2022-09-25T11:22:59.867Z,17.03
2022-09-25T11:25:38.426Z,16.33
2022-09-25T11:28:16.689Z,16.84
2022-09-25T11:30:51.455Z,16.77
2022-09-25T11:33:27.149Z,16.67
2022-09-25T11:36:11.559Z,16.88
2022-09-25T11:39:13.446Z,16.51
2022-09-25T11:41:55.961Z,16.61
2022-09-25T11:44:38.756Z,16.94
2022-09-25T11:47:15.723Z,16.92
2022-09-25T11:49:42.751Z,16.84
2022-09-25T11:52:22.700Z,16.80
2022-09-25T11:55:23.275Z,16.73
2022-09-25T11:58:34.605Z,16.71
2022-09-25T12:01:24.786Z,17.78
2022-09-25T12:04:15.433Z,17.89
2022-09-25T12:06:53.977Z,17.54
2022-09-25T12:09:29.413Z,17.82
2022-09-25T12:12:11.936Z,17.55
2022-09-25T12:15:03.219Z,17.53
2022-09-25T12:17:58.410Z,17.03
2022-09-25T12:20:30.973Z,16.25
2022-09-25T12:23:00.781Z,15.84
2022-09-25T12:25:47.846Z,15.70
2022-09-25T12:28:32.682Z,16.01
2022-09-25T12:31:12.188Z,16.24
2022-09-25T12:33:55.587Z,16.29
2022-09-25T12:36:43.590Z,16.43
2022-09-25T12:39:29.892Z,17.67
2022-09-25T12:42:09.942Z,17.93
2022-09-25T12:44:58.141Z,17.38
2022-09-25T12:47:37.487Z,18.52
2022-09-25T12:50:10.140Z,18.26
2022-09-25T12:52:39.148Z,17.81
2022-09-25T12:55:25.964Z,16.89
2022-09-25T12:58:06.726Z,16.90
2022-09-25T13:00:35.815Z,16.49
2022-09-25T13:03:17.807Z,16.43
2022-09-25T13:05:50.057Z,16.66
2022-09-25T13:08:20.197Z,16.75
2022-09-25T13:10:56.850Z,16.68
2022-09-25T13:13:30.134Z,17.24
2022-09-25T13:15:59.394Z,17.13
2022-09-25T13:18:33.863Z,16.91
2022-09-25T13:21:23.465Z,17.53
2022-09-25T13:23:52.951Z,17.02
2022-09-25T13:26:27.148Z,16.74
2022-09-25T13:29:14.733Z,16.25
2022-09-25T13:31:44.340Z,17.12
2022-09-25T13:34:14.673Z,16.97
2022-09-25T13:36:44.014Z,17.13
2022-09-25T13:39:49.408Z,17.17
2022-09-25T13:42:30.870Z,17.51
2022-09-25T13:45:25.837Z,17.82
2022-09-25T13:48:01.728Z,17.60
2022-09-25T13:50:31.298Z,18.45
2022-09-25T13:53:20.104Z,18.83
2022-09-25T13:55:55.511Z,19.03
2022-09-25T13:58:26.774Z,19.36
2022-09-25T14:00:57.362Z,19.66
2022-09-25T14:03:49.600Z,19.69
2022-09-25T14:06:27.014Z,19.40
2022-09-25T14:08:55.867Z,19.71
2022-09-25T14:11:34.255Z,19.58
2022-09-25T14:14:04.713Z,19.53
2022-09-25T14:16:36.629Z,19.40
2022-09-25T14:19:04.867Z,19.15
2022-09-25T14:21:34.355Z,19.35
2022-09-25T14:24:20.471Z,19.62
2022-09-25T14:26:48.286Z,19.54
2022-09-25T14:29:18.371Z,19.35
2022-09-25T14:32:07.317Z,18.71
2022-09-25T14:34:58.309Z,18.31
2022-09-25T14:37:58.090Z,17.52
2022-09-25T14:40:49.157Z,17.03
2022-09-25T14:43:47.812Z,16.93
2022-09-25T14:46:20.107Z,16.80
2022-09-25T14:49:16.722Z,16.72
2022-09-25T14:51:47.080Z,16.85
2022-09-25T14:54:17.742Z,17.09
2022-09-25T14:56:50.328Z,16.89
2022-09-25T14:59:19.630Z,17.07
2022-09-25T15:01:49.485Z,16.16
2022-09-25T15:04:45.615Z,16.92
2022-09-25T15:07:23.039Z,16.95
2022-09-25T15:09:51.037Z,16.80
2022-09-25T15:12:17.839Z,16.90
2022-09-25T15:15:22.649Z,17.15
2022-09-25T15:17:54.667Z,17.31
2022-09-25T15:20:24.863Z,17.51
2022-09-25T15:23:00.985Z,17.51
2022-09-25T15:25:35.522Z,16.57
2022-09-25T15:28:06.147Z,16.76
2022-09-25T15:30:35.817Z,17.19
2022-09-25T15:33:02.233Z,17.08
2022-09-25T15:35:30.326Z,17.10
2022-09-25T15:38:13.811Z,17.31
2022-09-25T15:40:41.497Z,17.45
2022-09-25T15:43:16.009Z,17.34
2022-09-25T15:45:58.304Z,17.14
2022-09-25T15:48:32.477Z,16.99
2022-09-25T15:51:04.809Z,16.46
2022-09-25T15:53:44.177Z,16.50
2022-09-25T15:56:18.452Z,16.52
2022-09-25T15:58:52.570Z,16.51
2022-09-25T16:01:47.160Z,16.04
2022-09-25T16:04:38.994Z,16.39
2022-09-25T16:07:28.847Z,16.27
2022-09-25T16:09:58.421Z,16.29
2022-09-25T16:12:35.848Z,16.22
2022-09-25T16:15:27.827Z,16.28
2022-09-25T16:18:05.158Z,15.67
2022-09-25T16:20:35.631Z,15.25
2022-09-25T16:23:05.545Z,16.18
2022-09-25T16:25:37.032Z,15.43
2022-09-25T16:28:19.327Z,15.72
2022-09-25T16:31:06.296Z,15.83
2022-09-25T16:33:38.770Z,15.70
2022-09-25T16:36:17.669Z,15.05
2022-09-25T16:39:03.395Z,15.42
2022-09-25T16:41:30.264Z,15.37
2022-09-25T16:44:16.125Z,15.40
2022-09-25T16:47:07.570Z,15.27
2022-09-25T16:49:34.331Z,15.33
2022-09-25T16:52:05.203Z,15.33
2022-09-25T16:54:33.183Z,15.05
2022-09-25T16:57:01.841Z,15.28
2022-09-25T16:59:28.488Z,15.00
2022-09-25T17:02:01.860Z,14.73
2022-09-25T17:04:30.789Z,14.76
2022-09-25T17:07:00.450Z,14.69
2022-09-25T17:09:28.702Z,14.76
2022-09-25T17:12:10.496Z,14.14
2022-09-25T17:14:36.945Z,13.97
2022-09-25T17:17:03.314Z,13.17
2022-09-25T17:19:29.697Z,14.38
2022-09-25T17:21:56.998Z,13.89
2022-09-25T17:24:26.596Z,14.09
2022-09-25T17:26:53.205Z,13.71
2022-09-25T17:29:20.751Z,14.18
2022-09-25T17:31:47.094Z,13.35
2022-09-25T17:34:24.997Z,13.65
2022-09-25T17:36:51.986Z,14.05
2022-09-25T17:39:18.299Z,13.53
2022-09-25T17:41:44.903Z,13.63
2022-09-25T17:44:19.150Z,13.87
2022-09-25T17:46:45.573Z,13.71
2022-09-25T17:49:12.017Z,13.21
2022-09-25T17:51:39.101Z,13.35
2022-09-25T17:54:06.461Z,13.44
2022-09-25T17:56:37.619Z,13.14
2022-09-25T17:59:05.388Z,13.08
2022-09-25T18:01:38.899Z,13.08
2022-09-25T18:04:21.170Z,12.68
2022-09-25T18:06:49.056Z,12.97
2022-09-25T18:09:15.689Z,12.36
2022-09-25T18:11:43.942Z,12.81
2022-09-25T18:14:15.303Z,12.71
2022-09-25T18:16:43.958Z,12.67
2022-09-25T18:19:37.050Z,12.61
2022-09-25T18:22:19.416Z,12.54
2022-09-25T18:24:47.945Z,12.35
2022-09-25T18:27:15.565Z,12.37
2022-09-25T18:29:42.221Z,11.33
2022-09-25T18:32:08.573Z,11.60
2022-09-25T18:34:34.932Z,12.00
2022-09-25T18:37:01.246Z,12.10
2022-09-25T18:39:27.552Z,11.59
2022-09-25T18:41:53.881Z,11.89
2022-09-25T18:44:23.249Z,12.00
2022-09-25T18:46:51.304Z,11.93
2022-09-25T18:49:18.968Z,11.64
2022-09-25T18:51:45.805Z,11.50
2022-09-25T18:54:13.786Z,11.71
2022-09-25T18:56:40.736Z,11.21
2022-09-25T18:59:07.557Z,11.55
2022-09-25T19:01:36.123Z,11.16
2022-09-25T19:04:02.980Z,11.01
2022-09-25T19:06:29.320Z,11.34
2022-09-25T19:08:57.290Z,11.14
2022-09-25T19:11:25.431Z,11.12
2022-09-25T19:13:51.738Z,11.13
2022-09-25T19:16:19.190Z,10.78
2022-09-25T19:18:46.381Z,11.15
2022-09-25T19:21:15.168Z,10.82
2022-09-25T19:23:42.739Z,10.72
2022-09-25T19:26:14.764Z,10.04
2022-09-25T19:28:42.055Z,10.51
2022-09-25T19:31:14.536Z,10.95
2022-09-25T19:33:40.970Z,10.81
2022-09-25T19:36:11.990Z,10.51
2022-09-25T19:38:40.093Z,10.76
2022-09-25T19:41:13.951Z,10.86
2022-09-25T19:43:40.366Z,10.72
2022-09-25T19:46:06.918Z,10.52
2022-09-25T19:48:33.659Z,10.48
2022-09-25T19:51:06.025Z,10.61
2022-09-25T19:53:32.773Z,10.54
2022-09-25T19:55:59.137Z,9.94
2022-09-25T19:58:25.736Z,10.18
2022-09-25T20:00:53.985Z,9.95
2022-09-25T20:03:20.407Z,10.40
2022-09-25T20:05:48.839Z,10.15
2022-09-25T20:08:15.602Z,9.83
2022-09-25T20:10:42.114Z,10.21
2022-09-25T20:13:09.629Z,9.65
2022-09-25T20:15:36.459Z,10.14
2022-09-25T20:18:02.846Z,9.49
2022-09-25T20:20:29.742Z,10.09
2022-09-25T20:22:56.663Z,9.75
2022-09-25T20:25:24.107Z,10.01
2022-09-25T20:27:52.247Z,9.82
2022-09-25T20:30:19.291Z,9.80
2022-09-25T20:32:46.181Z,9.46
2022-09-25T20:35:12.853Z,9.57
2022-09-25T20:37:39.362Z,9.28
2022-09-25T20:40:06.210Z,9.45
2022-09-25T20:42:33.854Z,9.75
2022-09-25T20:45:00.437Z,9.66
2022-09-25T20:47:33.731Z,9.67
2022-09-25T20:50:00.573Z,9.23
2022-09-25T20:52:27.976Z,9.17
2022-09-25T20:54:54.637Z,9.53
2022-09-25T20:57:20.947Z,8.97
2022-09-25T20:59:47.270Z,9.21
2022-09-25T21:02:13.907Z,9.55
2022-09-25T21:04:40.438Z,9.26
2022-09-25T21:07:06.766Z,9.35
2022-09-25T21:09:33.092Z,9.86
2022-09-25T21:11:59.884Z,9.48
2022-09-25T21:14:28.038Z,10.05
2022-09-25T21:16:59.025Z,10.12
2022-09-25T21:19:26.955Z,10.13
2022-09-25T21:21:53.313Z,10.25
2022-09-25T21:24:21.150Z,10.27
2022-09-25T21:26:48.105Z,10.26
2022-09-25T21:29:16.137Z,10.25
2022-09-25T21:31:48.428Z,10.24
2022-09-25T21:34:16.451Z,9.13
2022-09-25T21:36:43.474Z,10.13
2022-09-25T21:39:10.089Z,10.31
2022-09-25T21:41:37.274Z,10.33
2022-09-25T21:44:11.720Z,10.33
2022-09-25T21:46:38.114Z,9.66
2022-09-25T21:49:06.434Z,10.38
2022-09-25T21:51:37.234Z,10.34
2022-09-25T21:54:05.556Z,10.04
2022-09-25T21:56:32.550Z,10.10
2022-09-25T21:59:07.168Z,10.09
2022-09-25T22:01:35.441Z,9.83
2022-09-25T22:04:03.409Z,10.07
2022-09-25T22:06:38.113Z,9.86
2022-09-25T22:09:10.514Z,9.85
2022-09-25T22:11:37.627Z,9.95
2022-09-25T22:14:04.685Z,9.65
2022-09-25T22:16:33.948Z,9.87
2022-09-25T22:19:06.200Z,9.81
2022-09-25T22:21:33.471Z,9.29
2022-09-25T22:24:00.042Z,9.59
2022-09-25T22:26:27.947Z,9.52
2022-09-25T22:28:54.631Z,9.44
2022-09-25T22:31:26.930Z,9.38
2022-09-25T22:33:58.772Z,9.34
2022-09-25T22:36:27.213Z,9.33
2022-09-25T22:38:54.792Z,8.81
2022-09-25T22:41:21.384Z,9.21
2022-09-25T22:43:51.452Z,9.37
2022-09-25T22:46:18.388Z,9.08
2022-09-25T22:48:44.744Z,7.25
2022-09-25T22:51:13.898Z,9.33
2022-09-25T22:53:40.564Z,9.13
2022-09-25T22:56:13.912Z,9.30
2022-09-25T22:58:40.866Z,9.27
2022-09-25T23:01:12.853Z,9.24
2022-09-25T23:03:39.726Z,8.81
2022-09-25T23:06:06.234Z,9.20
2022-09-25T23:08:32.570Z,9.03
2022-09-25T23:11:07.712Z,9.19
2022-09-25T23:13:35.282Z,9.22
2022-09-25T23:16:08.137Z,9.16
2022-09-25T23:18:36.406Z,9.27
2022-09-25T23:21:03.125Z,9.34
2022-09-25T23:23:29.488Z,9.00
2022-09-25T23:26:03.259Z,9.42
2022-09-25T23:28:32.931Z,9.03
2022-09-25T23:31:08.284Z,9.43
2022-09-25T23:33:35.428Z,9.09
2022-09-25T23:36:23.139Z,9.43
2022-09-25T23:38:51.055Z,9.52
2022-09-25T23:41:19.918Z,9.54
2022-09-25T23:43:48.133Z,9.40
2022-09-25T23:46:15.993Z,9.57
2022-09-25T23:48:43.376Z,9.55
2022-09-25T23:51:10.669Z,9.04
2022-09-25T23:53:37.773Z,9.26
2022-09-25T23:56:08.899Z,9.38
2022-09-25T23:58:35.649Z,9.11
